Terminal Aerodrome Forecast
Issued by NWS Mobile, AL

Home | Current Version | Previous Version | Text Only | Print | Product List | Glossary On
Versions: 1 2 3 4 5 6 7 8 9 10 11 12 13 14 15 16 17 18 19 20 21 22 23 24 25 26 27 28 29 30 31 32 33 34
000
FTUS44 KMOB 281725
TAFMOB
TAF
KMOB 281725Z 2818/2918 20006KT P6SM FEW030 SCT040 BKN090
      TEMPO 2818/2821 36015G20KT 3SM -TSRA BKN040CB
     FM290000 20010KT P6SM BKN050
     FM290600 21004KT P6SM OVC005=

USA.gov is the U.S. government's official web portal to all federal, state and local government web resources and services.